createdAt,value
2022-10-12T00:00:19.136Z,9.10
2022-10-12T00:05:12.644Z,8.50
2022-10-12T00:07:40.075Z,9.70
2022-10-12T00:10:07.329Z,9.00
2022-10-12T00:12:34.241Z,11.40
2022-10-12T00:15:00.914Z,12.30
2022-10-12T00:17:27.600Z,11.80
2022-10-12T00:19:54.445Z,11.80
2022-10-12T00:22:21.130Z,9.50
2022-10-12T00:24:47.859Z,10.20
2022-10-12T00:27:14.517Z,9.80
2022-10-12T00:29:41.249Z,8.60
2022-10-12T00:34:34.750Z,10.20
2022-10-12T00:39:28.098Z,10.40
2022-10-12T00:41:54.752Z,10.90
2022-10-12T00:44:35.263Z,10.90
2022-10-12T00:47:05.311Z,13.10
2022-10-12T00:49:34.395Z,11.80
2022-10-12T00:52:03.149Z,10.90
2022-10-12T00:54:34.869Z,11.90
2022-10-12T00:57:02.522Z,10.60
2022-10-12T00:59:32.471Z,9.40
2022-10-12T01:01:59.194Z,10.40
2022-10-12T01:04:25.875Z,11.30
2022-10-12T01:06:52.632Z,9.60
2022-10-12T01:09:19.905Z,9.70
2022-10-12T01:11:46.600Z,9.40
2022-10-12T01:14:13.276Z,11.00
2022-10-12T01:17:04.381Z,9.90
2022-10-12T01:19:52.649Z,11.10
2022-10-12T01:22:23.100Z,10.40
2022-10-12T01:24:54.305Z,12.10
2022-10-12T01:27:23.732Z,10.30
2022-10-12T01:30:09.791Z,11.50
2022-10-12T01:33:00.900Z,12.30
2022-10-12T01:35:49.305Z,11.50
2022-10-12T01:38:50.217Z,11.90
2022-10-12T01:41:32.698Z,10.50
2022-10-12T01:43:59.389Z,10.60
2022-10-12T01:46:26.026Z,11.50
2022-10-12T01:49:00.480Z,21.30
2022-10-12T01:52:08.598Z,13.30
2022-10-12T01:54:43.412Z,16.60
2022-10-12T01:57:18.202Z,13.60
2022-10-12T01:59:52.713Z,11.80
2022-10-12T02:02:40.739Z,11.10
2022-10-12T02:07:49.359Z,16.80
2022-10-12T02:10:27.855Z,14.80
2022-10-12T02:12:54.719Z,11.80
2022-10-12T02:17:48.383Z,11.90
2022-10-12T02:20:16.642Z,12.00
2022-10-12T02:22:43.294Z,10.50
2022-10-12T02:25:11.991Z,10.30
2022-10-12T02:27:40.188Z,11.10
2022-10-12T02:30:07.842Z,11.20
2022-10-12T02:32:38.599Z,12.70
2022-10-12T02:35:09.604Z,11.00
2022-10-12T02:37:37.395Z,11.50
2022-10-12T02:40:11.761Z,10.80
2022-10-12T02:43:08.324Z,10.50
2022-10-12T02:45:26.219Z,11.50
2022-10-12T02:47:53.535Z,12.90
2022-10-12T02:50:20.377Z,13.40
2022-10-12T02:55:13.637Z,12.00
2022-10-12T02:57:40.455Z,15.50
2022-10-12T03:00:07.738Z,16.70
2022-10-12T03:02:34.395Z,15.20
2022-10-12T03:05:01.070Z,15.00
2022-10-12T03:07:27.834Z,13.10
2022-10-12T03:09:54.552Z,13.90
2022-10-12T03:14:47.926Z,12.20
2022-10-12T03:17:14.579Z,19.20
2022-10-12T03:19:41.332Z,16.60
2022-10-12T03:24:34.612Z,19.60
2022-10-12T03:27:01.306Z,19.10
2022-10-12T03:29:28.033Z,17.80
2022-10-12T03:34:21.306Z,12.90
2022-10-12T03:36:47.962Z,14.10
2022-10-12T03:39:14.800Z,12.40
2022-10-12T03:44:08.038Z,12.80
2022-10-12T03:46:34.730Z,15.00
2022-10-12T03:49:01.499Z,15.20
2022-10-12T03:53:54.763Z,16.00
2022-10-12T03:56:21.433Z,13.00
2022-10-12T03:58:48.113Z,14.10
2022-10-12T04:01:14.889Z,14.90
2022-10-12T04:06:08.246Z,14.80
2022-10-12T04:11:24.617Z,16.70
2022-10-12T04:13:51.317Z,19.30
2022-10-12T04:16:18.088Z,16.00
2022-10-12T04:18:44.752Z,19.00
2022-10-12T04:21:13.823Z,20.50
2022-10-12T04:23:41.261Z,23.10
2022-10-12T04:26:08.001Z,30.20
2022-10-12T04:28:34.714Z,50.90
2022-10-12T04:31:01.431Z,44.50
2022-10-12T04:33:28.253Z,49.80
2022-10-12T04:38:21.576Z,61.10
2022-10-12T04:40:48.662Z,53.30
2022-10-12T04:43:16.036Z,51.10
2022-10-12T04:45:42.762Z,40.30
2022-10-12T04:48:09.460Z,30.60
2022-10-12T04:50:36.229Z,27.10
2022-10-12T04:53:02.912Z,24.90
2022-10-12T04:55:29.550Z,22.50
2022-10-12T04:57:56.360Z,18.80
2022-10-12T05:00:23.024Z,17.90
2022-10-12T05:02:49.750Z,14.40
2022-10-12T05:05:16.422Z,14.50
2022-10-12T05:07:43.163Z,13.00
2022-10-12T05:10:10.016Z,13.00
2022-10-12T05:12:36.967Z,11.90
2022-10-12T05:15:04.232Z,11.80
2022-10-12T05:17:30.999Z,12.80
2022-10-12T05:19:57.671Z,11.10
2022-10-12T05:22:24.370Z,12.50
2022-10-12T05:24:53.795Z,11.30
2022-10-12T05:27:21.106Z,13.00
2022-10-12T05:29:47.852Z,14.10
2022-10-12T05:32:14.611Z,12.90
2022-10-12T05:34:42.383Z,15.70
2022-10-12T05:37:09.234Z,17.50
2022-10-12T05:42:04.043Z,53.70
2022-10-12T05:46:57.457Z,63.20
2022-10-12T05:49:24.142Z,59.10
2022-10-12T05:51:50.875Z,47.60
2022-10-12T05:56:44.131Z,45.70
2022-10-12T05:59:11.621Z,48.00
2022-10-12T06:01:38.426Z,58.60
2022-10-12T06:06:32.961Z,44.40
2022-10-12T06:08:59.710Z,66.10
2022-10-12T06:13:54.329Z,85.70
2022-10-12T06:16:21.152Z,97.20
2022-10-12T06:21:32.906Z,81.20
2022-10-12T06:24:00.168Z,60.10
2022-10-12T06:26:26.891Z,61.40
2022-10-12T06:31:20.751Z,70.60
2022-10-12T06:33:47.636Z,80.20
2022-10-12T06:36:14.354Z,72.00
2022-10-12T06:38:41.097Z,49.80
2022-10-12T06:43:34.467Z,46.80
2022-10-12T06:48:28.689Z,39.50
2022-10-12T06:50:58.457Z,18.00
2022-10-12T06:55:55.322Z,16.00
2022-10-12T06:58:22.001Z,14.90
2022-10-12T07:00:48.943Z,14.40
2022-10-12T07:03:16.617Z,14.40
2022-10-12T07:05:43.434Z,15.30
2022-10-12T07:10:38.075Z,13.60
2022-10-12T07:13:04.802Z,17.60
2022-10-12T07:15:31.461Z,16.80
2022-10-12T07:17:58.211Z,14.60
2022-10-12T07:22:52.857Z,14.80
2022-10-12T07:25:19.540Z,15.50
2022-10-12T07:27:49.404Z,15.10
2022-10-12T07:30:16.269Z,19.40
2022-10-12T07:35:11.337Z,16.30
2022-10-12T07:40:05.756Z,14.30
2022-10-12T07:42:32.490Z,14.20
2022-10-12T07:44:59.137Z,13.30
2022-10-12T07:47:25.849Z,13.60
2022-10-12T07:52:19.171Z,12.80
2022-10-12T07:57:12.684Z,12.50
2022-10-12T07:59:39.338Z,12.20
2022-10-12T08:02:06.104Z,11.40
2022-10-12T08:04:32.887Z,88.10
2022-10-12T08:09:26.411Z,18.30
2022-10-12T08:14:19.782Z,11.10
2022-10-12T08:19:13.457Z,10.70
2022-10-12T08:21:41.313Z,9.50
2022-10-12T08:24:09.097Z,8.80
2022-10-12T08:26:36.418Z,9.90
2022-10-12T08:29:03.758Z,9.90
2022-10-12T08:31:30.492Z,9.60
2022-10-12T08:36:24.497Z,7.70
2022-10-12T08:38:54.068Z,8.30
2022-10-12T08:41:48.364Z,7.20
2022-10-12T08:44:52.651Z,7.50
2022-10-12T08:47:30.548Z,7.60
2022-10-12T08:49:57.232Z,7.60
2022-10-12T08:54:59.059Z,7.50
2022-10-12T08:57:25.742Z,6.90
2022-10-12T08:59:52.456Z,6.00
2022-10-12T09:05:09.866Z,5.60
2022-10-12T09:07:46.447Z,6.30
2022-10-12T09:10:27.878Z,5.60
2022-10-12T09:13:00.163Z,6.50
2022-10-12T09:15:32.631Z,8.20
2022-10-12T09:18:00.461Z,7.10
2022-10-12T09:20:44.270Z,5.80
2022-10-12T09:23:27.953Z,9.60
2022-10-12T09:25:58.536Z,8.10
2022-10-12T09:28:40.139Z,13.60
2022-10-12T09:31:10.043Z,5.80
2022-10-12T09:33:42.148Z,4.30
2022-10-12T09:36:10.168Z,4.10
2022-10-12T09:38:38.188Z,4.50
2022-10-12T09:41:05.159Z,4.10
2022-10-12T09:43:31.896Z,3.60
2022-10-12T09:46:00.072Z,4.00
2022-10-12T09:48:26.793Z,14.90
2022-10-12T09:51:01.475Z,15.00
2022-10-12T09:53:36.210Z,13.90
2022-10-12T09:56:04.982Z,12.90
2022-10-12T09:58:39.642Z,17.90
2022-10-12T10:01:25.429Z,14.40
2022-10-12T10:04:14.736Z,9.60
2022-10-12T10:06:43.788Z,9.90
2022-10-12T10:09:32.956Z,6.10
2022-10-12T10:12:24.215Z,6.50
2022-10-12T10:14:51.753Z,5.60
2022-10-12T10:17:24.697Z,8.60
2022-10-12T10:19:51.929Z,8.50
2022-10-12T10:22:19.531Z,4.10
2022-10-12T10:24:50.768Z,4.10
2022-10-12T10:27:30.063Z,3.50
2022-10-12T10:30:29.730Z,2.40
2022-10-12T10:33:13.550Z,2.10
2022-10-12T10:35:40.275Z,2.20
2022-10-12T10:40:36.027Z,9.10
2022-10-12T10:43:05.338Z,9.60
2022-10-12T10:45:52.303Z,5.80
2022-10-12T10:48:24.134Z,3.40
2022-10-12T10:51:02.507Z,2.70
2022-10-12T10:53:46.811Z,3.10
2022-10-12T10:56:21.910Z,3.20
2022-10-12T10:58:56.312Z,2.80
2022-10-12T11:01:56.220Z,2.70
2022-10-12T11:04:29.402Z,3.50
2022-10-12T11:06:58.210Z,3.90
2022-10-12T11:09:32.396Z,3.20
2022-10-12T11:12:14.636Z,3.20
2022-10-12T11:14:52.495Z,3.30
2022-10-12T11:17:25.068Z,3.10
2022-10-12T11:20:01.008Z,3.50
2022-10-12T11:22:36.928Z,3.90
2022-10-12T11:25:14.673Z,3.30
2022-10-12T11:27:42.803Z,9.60
2022-10-12T11:30:17.052Z,4.10
2022-10-12T11:32:49.502Z,8.00
2022-10-12T11:35:27.634Z,4.00
2022-10-12T11:37:58.146Z,2.80
2022-10-12T11:43:22.656Z,5.10
2022-10-12T11:45:51.602Z,3.10
2022-10-12T11:48:30.141Z,3.40
2022-10-12T11:51:00.086Z,3.40
2022-10-12T11:53:33.431Z,2.80
2022-10-12T11:56:09.440Z,2.90
2022-10-12T11:58:59.274Z,2.90
2022-10-12T12:01:39.517Z,3.20
2022-10-12T12:04:40.545Z,3.10
2022-10-12T12:07:06.813Z,3.50
2022-10-12T12:09:37.603Z,2.30
2022-10-12T12:12:18.052Z,2.80
2022-10-12T12:14:51.333Z,3.10
2022-10-12T12:17:31.563Z,3.50
2022-10-12T12:20:00.412Z,2.80
2022-10-12T12:22:27.168Z,3.00
2022-10-12T12:24:58.275Z,3.10
2022-10-12T12:27:48.200Z,2.60
2022-10-12T12:30:14.950Z,2.30
2022-10-12T12:32:47.479Z,2.90
2022-10-12T12:35:23.266Z,2.80
2022-10-12T12:37:50.294Z,3.90
2022-10-12T12:40:23.239Z,2.60
2022-10-12T12:42:50.003Z,2.60
2022-10-12T12:45:39.102Z,2.90
2022-10-12T12:48:09.416Z,3.30
2022-10-12T12:50:37.415Z,2.80
2022-10-12T12:53:14.311Z,3.60
2022-10-12T12:55:45.916Z,5.70
2022-10-12T12:58:50.782Z,3.50
2022-10-12T13:01:32.793Z,3.40
2022-10-12T13:04:20.759Z,2.90
2022-10-12T13:07:25.962Z,2.70
2022-10-12T13:10:01.813Z,3.00
2022-10-12T13:12:58.872Z,3.20
2022-10-12T13:15:46.084Z,2.90
2022-10-12T13:18:45.386Z,3.70
2022-10-12T13:21:06.871Z,2.70
2022-10-12T13:23:33.691Z,3.80
2022-10-12T13:26:08.929Z,3.20
2022-10-12T13:28:39.291Z,3.60
2022-10-12T13:31:09.581Z,3.30
2022-10-12T13:33:54.567Z,3.00
2022-10-12T13:36:26.087Z,2.60
2022-10-12T13:38:57.345Z,3.90
2022-10-12T13:41:25.581Z,5.90
2022-10-12T13:43:53.445Z,3.00
2022-10-12T13:46:46.134Z,3.20
2022-10-12T13:49:30.177Z,2.70
2022-10-12T13:52:40.171Z,3.20
2022-10-12T13:55:17.889Z,3.00
2022-10-12T13:57:50.139Z,3.30
2022-10-12T14:00:19.447Z,3.50
2022-10-12T14:03:02.991Z,2.60
2022-10-12T14:05:31.276Z,2.40
2022-10-12T14:08:19.614Z,3.00
2022-10-12T14:10:46.348Z,4.30
2022-10-12T14:13:22.593Z,5.20
2022-10-12T14:15:49.303Z,5.40
2022-10-12T14:18:35.761Z,5.90
2022-10-12T14:21:26.818Z,5.40
2022-10-12T14:23:58.011Z,7.40
2022-10-12T14:26:34.997Z,9.00
2022-10-12T14:29:44.592Z,9.40
2022-10-12T14:32:11.287Z,7.00
2022-10-12T14:39:35.952Z,6.40
2022-10-12T14:42:04.668Z,6.30
2022-10-12T14:44:42.044Z,6.10
2022-10-12T14:47:25.028Z,27.40
2022-10-12T14:49:53.513Z,11.40
2022-10-12T14:52:23.004Z,9.50
2022-10-12T14:54:51.680Z,8.10
2022-10-12T14:57:18.909Z,6.80
2022-10-12T14:59:46.324Z,6.00
2022-10-12T15:02:20.390Z,8.90
2022-10-12T15:04:47.173Z,8.50
2022-10-12T15:09:45.155Z,7.30
2022-10-12T15:12:15.662Z,7.70
2022-10-12T15:14:42.563Z,6.50
2022-10-12T15:17:11.672Z,5.00
2022-10-12T15:19:38.643Z,4.50
2022-10-12T15:24:32.056Z,5.90
2022-10-12T15:29:25.363Z,5.50
2022-10-12T15:31:52.949Z,6.30
2022-10-12T15:34:19.774Z,5.50
2022-10-12T15:36:46.517Z,6.50
2022-10-12T15:41:39.790Z,9.70
2022-10-12T15:46:33.031Z,11.20
2022-10-12T15:48:59.726Z,8.10
2022-10-12T15:53:53.316Z,7.40
2022-10-12T15:56:20.260Z,8.10
2022-10-12T15:58:47.134Z,7.40
2022-10-12T16:01:14.831Z,7.10
2022-10-12T16:03:41.737Z,7.50
2022-10-12T16:06:08.750Z,7.60
2022-10-12T16:08:35.580Z,11.40
2022-10-12T16:13:29.588Z,15.20
2022-10-12T16:18:23.110Z,21.80
2022-10-12T16:23:23.798Z,21.50
2022-10-12T16:28:22.400Z,27.00
2022-10-12T16:30:50.006Z,28.50
2022-10-12T16:33:16.954Z,30.20
2022-10-12T16:35:43.710Z,33.00
2022-10-12T16:40:41.432Z,33.80
2022-10-12T16:43:08.466Z,35.70
2022-10-12T16:45:35.153Z,36.60
2022-10-12T16:48:01.947Z,35.80
2022-10-12T16:52:55.277Z,31.50
2022-10-12T16:55:21.964Z,34.70
2022-10-12T16:57:48.643Z,34.30
2022-10-12T17:00:16.937Z,37.10
2022-10-12T17:02:43.649Z,39.00
2022-10-12T17:05:10.374Z,39.20
2022-10-12T17:10:04.119Z,38.00
2022-10-12T17:12:30.803Z,36.60
2022-10-12T17:14:57.910Z,38.60
2022-10-12T17:17:24.580Z,37.90
2022-10-12T17:19:51.358Z,37.80
2022-10-12T17:24:45.335Z,39.40
2022-10-12T17:27:12.511Z,40.80
2022-10-12T17:29:42.091Z,47.60
2022-10-12T17:32:09.878Z,50.20
2022-10-12T17:34:41.248Z,55.30
2022-10-12T17:37:11.265Z,62.60
2022-10-12T17:39:40.105Z,68.80
2022-10-12T17:42:06.944Z,70.60
2022-10-12T17:47:00.563Z,63.60
2022-10-12T17:51:54.116Z,57.20
2022-10-12T17:54:21.424Z,53.40
2022-10-12T17:56:48.090Z,54.10
2022-10-12T17:59:16.033Z,56.30
2022-10-12T18:01:42.711Z,61.30
2022-10-12T18:04:10.170Z,59.30
2022-10-12T18:06:36.833Z,54.70
2022-10-12T18:09:04.697Z,60.70
2022-10-12T18:11:31.425Z,58.60
2022-10-12T18:13:58.127Z,62.70
2022-10-12T18:16:29.957Z,56.20
2022-10-12T18:18:58.234Z,58.80
2022-10-12T18:21:26.114Z,60.30
2022-10-12T18:23:52.877Z,60.60
2022-10-12T18:26:21.782Z,59.10
2022-10-12T18:28:49.736Z,62.40
2022-10-12T18:31:24.316Z,65.90
2022-10-12T18:33:51.536Z,62.50
2022-10-12T18:36:18.404Z,63.20
2022-10-12T18:41:15.383Z,58.20
2022-10-12T18:43:42.115Z,51.60
2022-10-12T18:46:10.272Z,54.00
2022-10-12T18:48:37.048Z,53.30
2022-10-12T18:51:25.140Z,47.40
2022-10-12T18:53:51.901Z,48.20
2022-10-12T18:56:18.991Z,42.70
2022-10-12T18:58:45.750Z,46.00
2022-10-12T19:01:18.041Z,42.10
2022-10-12T19:03:44.855Z,38.20
2022-10-12T19:06:13.357Z,36.90
2022-10-12T19:08:40.426Z,37.90
2022-10-12T19:11:08.238Z,40.30
2022-10-12T19:13:38.766Z,36.90
2022-10-12T19:16:07.524Z,37.40
2022-10-12T19:18:34.317Z,34.40
2022-10-12T19:21:05.507Z,34.70
2022-10-12T19:23:32.216Z,33.50
2022-10-12T19:26:04.298Z,32.80
2022-10-12T19:28:31.000Z,31.90
2022-10-12T19:30:58.738Z,33.00
2022-10-12T19:33:26.772Z,31.00
2022-10-12T19:35:53.523Z,30.20
2022-10-12T19:38:20.506Z,29.00
2022-10-12T19:40:47.321Z,25.50
2022-10-12T19:45:41.014Z,26.20
2022-10-12T19:48:07.924Z,23.10
2022-10-12T19:53:01.561Z,23.70
2022-10-12T19:55:29.988Z,23.80
2022-10-12T19:57:56.720Z,22.60
2022-10-12T20:00:23.648Z,22.60
2022-10-12T20:02:50.312Z,22.70
2022-10-12T20:05:17.006Z,19.30
2022-10-12T20:07:43.720Z,21.40
2022-10-12T20:10:10.394Z,20.00
2022-10-12T20:12:37.126Z,19.70
2022-10-12T20:15:04.189Z,20.90
2022-10-12T20:17:30.899Z,21.10
2022-10-12T20:19:57.656Z,19.50
2022-10-12T20:22:24.317Z,20.40
2022-10-12T20:24:53.811Z,19.70
2022-10-12T20:27:20.502Z,18.00
2022-10-12T20:29:47.395Z,18.30
2022-10-12T20:32:14.059Z,16.40
2022-10-12T20:34:40.737Z,16.50
2022-10-12T20:37:07.432Z,17.30
2022-10-12T20:39:34.098Z,16.90
2022-10-12T20:42:00.771Z,15.80
2022-10-12T20:44:27.632Z,15.30
2022-10-12T20:46:55.047Z,15.60
2022-10-12T20:49:21.809Z,14.50
2022-10-12T20:51:48.573Z,15.10
2022-10-12T20:54:16.247Z,16.10
2022-10-12T20:56:43.379Z,13.60
2022-10-12T20:59:10.490Z,17.10
2022-10-12T21:01:37.299Z,17.00
2022-10-12T21:06:30.607Z,15.80
2022-10-12T21:08:57.437Z,14.90
2022-10-12T21:13:50.966Z,15.60
2022-10-12T21:18:44.438Z,14.30
2022-10-12T21:21:16.207Z,15.20
2022-10-12T21:23:54.134Z,13.70
2022-10-12T21:26:21.665Z,13.70
2022-10-12T21:28:48.392Z,14.80
2022-10-12T21:31:15.211Z,15.50
2022-10-12T21:36:13.534Z,14.60
2022-10-12T21:38:40.489Z,15.90
2022-10-12T21:41:07.676Z,15.30
2022-10-12T21:43:35.369Z,16.20
2022-10-12T21:46:10.175Z,16.40
2022-10-12T21:48:37.086Z,16.00
2022-10-12T21:53:30.674Z,18.70
2022-10-12T21:58:24.040Z,22.40
2022-10-12T22:00:51.041Z,21.50
2022-10-12T22:05:44.517Z,22.60
2022-10-12T22:10:38.989Z,22.10
2022-10-12T22:13:06.450Z,22.00
2022-10-12T22:15:33.626Z,22.30
2022-10-12T22:18:05.055Z,21.40
2022-10-12T22:22:58.549Z,22.40
2022-10-12T22:27:52.073Z,17.90
2022-10-12T22:30:18.884Z,21.50
2022-10-12T22:35:12.448Z,18.90
2022-10-12T22:37:41.684Z,18.60
2022-10-12T22:42:35.425Z,17.40
2022-10-12T22:47:29.031Z,16.50
2022-10-12T22:49:56.130Z,18.60
2022-10-12T22:52:22.955Z,16.20
2022-10-12T22:57:16.833Z,15.60
2022-10-12T23:02:10.339Z,15.30
2022-10-12T23:07:03.996Z,16.20
2022-10-12T23:11:57.431Z,18.20
2022-10-12T23:14:24.178Z,20.20
2022-10-12T23:16:50.909Z,18.70
2022-10-12T23:21:44.246Z,17.50
2022-10-12T23:24:10.909Z,17.80
2022-10-12T23:26:37.611Z,18.30
2022-10-12T23:29:04.297Z,16.80
2022-10-12T23:31:31.043Z,17.20
2022-10-12T23:33:58.931Z,17.20
2022-10-12T23:36:25.684Z,16.40
2022-10-12T23:38:52.354Z,17.20
2022-10-12T23:41:19.103Z,18.40
2022-10-12T23:46:12.633Z,18.70
2022-10-12T23:51:07.919Z,15.90
2022-10-12T23:53:35.190Z,17.70
2022-10-12T23:56:01.902Z,17.60
2022-10-12T23:58:28.587Z,17.20
